createdAt,value
2019-05-12T00:00:21.039Z,52.20
2019-05-12T00:02:49.629Z,52.20
2019-05-12T00:05:18.679Z,52.20
2019-05-12T00:07:48.867Z,52.30
2019-05-12T00:10:17.952Z,52.30
2019-05-12T00:12:48.416Z,52.30
2019-05-12T00:15:19.346Z,52.40
2019-05-12T00:17:48.403Z,52.60
2019-05-12T00:20:18.050Z,52.70
2019-05-12T00:22:51.474Z,52.60
2019-05-12T00:25:19.911Z,52.60
2019-05-12T00:27:48.864Z,52.70
2019-05-12T00:30:22.232Z,52.80
2019-05-12T00:32:50.763Z,52.80
2019-05-12T00:35:19.183Z,52.80
2019-05-12T00:37:48.618Z,52.80
2019-05-12T00:40:19.125Z,53.00
2019-05-12T00:42:48.905Z,53.00
2019-05-12T00:45:18.107Z,52.90
2019-05-12T00:47:48.088Z,53.10
2019-05-12T00:50:18.447Z,53.20
2019-05-12T00:52:48.865Z,53.10
2019-05-12T00:55:18.444Z,53.20
2019-05-12T00:57:48.479Z,53.20
2019-05-12T01:00:17.908Z,53.20
2019-05-12T01:02:48.513Z,53.20
2019-05-12T01:05:17.842Z,53.40
2019-05-12T01:07:48.179Z,53.60
2019-05-12T01:10:17.997Z,53.60
2019-05-12T01:12:48.490Z,53.70
2019-05-12T01:15:17.902Z,53.70
2019-05-12T01:17:47.768Z,53.80
2019-05-12T01:20:17.812Z,53.90
2019-05-12T01:22:50.319Z,54.00
2019-05-12T01:25:17.642Z,54.00
2019-05-12T01:27:48.235Z,54.00
2019-05-12T01:30:18.057Z,54.20
2019-05-12T01:32:48.380Z,54.40
2019-05-12T01:35:18.545Z,54.50
2019-05-12T01:37:49.251Z,54.50
2019-05-12T01:40:19.028Z,54.60
2019-05-12T01:42:48.371Z,54.70
2019-05-12T01:45:19.902Z,54.80
2019-05-12T01:47:48.634Z,54.90
2019-05-12T01:50:17.803Z,54.90
2019-05-12T01:52:47.852Z,54.90
2019-05-12T01:55:18.450Z,55.10
2019-05-12T01:57:48.495Z,55.00
2019-05-12T02:00:18.683Z,55.00
2019-05-12T02:02:48.107Z,55.10
2019-05-12T02:05:18.440Z,55.10
2019-05-12T02:07:51.187Z,55.20
2019-05-12T02:10:20.052Z,55.20
2019-05-12T02:12:49.712Z,55.20
2019-05-12T02:15:18.840Z,55.30
2019-05-12T02:17:48.107Z,55.40
2019-05-12T02:20:18.322Z,55.40
2019-05-12T02:22:47.746Z,55.40
2019-05-12T02:25:18.491Z,55.40
2019-05-12T02:27:47.690Z,55.40
2019-05-12T02:30:19.800Z,56.20
2019-05-12T02:32:52.363Z,55.60
2019-05-12T02:35:17.245Z,55.70
2019-05-12T02:37:45.684Z,55.70
2019-05-12T02:40:15.316Z,55.70
2019-05-12T02:42:46.259Z,55.70
2019-05-12T02:45:15.527Z,55.80
2019-05-12T02:47:45.682Z,55.80
2019-05-12T02:50:17.561Z,55.80
2019-05-12T02:52:46.301Z,55.80
2019-05-12T02:55:15.306Z,55.80
2019-05-12T02:57:45.184Z,55.80
2019-05-12T03:00:15.848Z,55.90
2019-05-12T03:02:47.435Z,55.80
2019-05-12T03:05:16.391Z,55.90
2019-05-12T03:07:46.960Z,55.90
2019-05-12T03:10:16.027Z,55.90
2019-05-12T03:12:45.127Z,55.90
2019-05-12T03:15:15.205Z,55.90
2019-05-12T03:17:44.438Z,56.00
2019-05-12T03:20:15.285Z,56.10
2019-05-12T03:22:44.864Z,56.10
2019-05-12T03:25:23.947Z,56.20
2019-05-12T03:27:44.564Z,56.30
2019-05-12T03:30:19.524Z,56.40
2019-05-12T03:32:47.865Z,56.40
2019-05-12T03:35:17.975Z,56.30
2019-05-12T03:37:46.824Z,56.40
2019-05-12T03:40:15.237Z,56.60
2019-05-12T03:42:44.502Z,56.50
2019-05-12T03:45:14.927Z,56.40
2019-05-12T03:47:45.512Z,56.50
2019-05-12T03:50:14.917Z,56.60
2019-05-12T03:52:44.908Z,56.60
2019-05-12T03:55:30.779Z,56.70
2019-05-12T03:57:45.032Z,56.70
2019-05-12T04:00:16.085Z,56.80
2019-05-12T04:02:45.542Z,57.40
2019-05-12T04:05:15.624Z,56.80
2019-05-12T04:07:45.079Z,56.80
2019-05-12T04:10:16.026Z,56.80
2019-05-12T04:12:45.007Z,56.80
2019-05-12T04:15:15.113Z,56.80
2019-05-12T04:17:45.602Z,56.80
2019-05-12T04:20:15.171Z,57.70
2019-05-12T04:22:44.804Z,57.00
2019-05-12T04:25:14.610Z,57.10
2019-05-12T04:27:45.124Z,57.10
2019-05-12T04:30:14.411Z,57.10
2019-05-12T04:32:45.181Z,57.10
2019-05-12T04:35:15.321Z,57.20
2019-05-12T04:37:44.834Z,57.30
2019-05-12T04:40:14.842Z,57.30
2019-05-12T04:42:45.181Z,57.40
2019-05-12T04:45:15.647Z,57.30
2019-05-12T04:47:45.099Z,57.40
2019-05-12T04:50:15.633Z,57.30
2019-05-12T04:52:44.693Z,57.30
2019-05-12T04:55:15.129Z,57.30
2019-05-12T04:57:45.044Z,57.40
2019-05-12T05:00:15.905Z,57.50
2019-05-12T05:02:45.487Z,57.40
2019-05-12T05:05:15.125Z,57.30
2019-05-12T05:07:44.727Z,57.40
2019-05-12T05:10:14.488Z,57.40
2019-05-12T05:12:45.006Z,57.50
2019-05-12T05:15:14.843Z,57.40
2019-05-12T05:17:44.287Z,57.50
2019-05-12T05:20:13.510Z,57.60
2019-05-12T05:22:43.992Z,57.70
2019-05-12T05:25:14.482Z,57.60
2019-05-12T05:27:44.363Z,57.60
2019-05-12T05:30:13.966Z,57.50
2019-05-12T05:32:44.493Z,57.50
2019-05-12T05:35:13.672Z,57.50
2019-05-12T05:37:44.157Z,58.10
2019-05-12T05:40:14.091Z,57.50
2019-05-12T05:42:43.980Z,57.40
2019-05-12T05:45:19.558Z,58.20
2019-05-12T05:47:44.276Z,57.50
2019-05-12T05:50:13.655Z,58.20
2019-05-12T05:52:43.806Z,57.70
2019-05-12T05:55:20.009Z,57.70
2019-05-12T05:57:44.424Z,57.60
2019-05-12T06:00:22.626Z,57.70
2019-05-12T06:02:44.275Z,57.70
2019-05-12T06:05:14.463Z,57.60
2019-05-12T06:07:44.272Z,57.60
2019-05-12T06:10:14.448Z,57.60
2019-05-12T06:12:46.403Z,57.60
2019-05-12T06:15:13.734Z,57.70
2019-05-12T06:17:43.915Z,57.60
2019-05-12T06:20:13.559Z,57.30
2019-05-12T06:22:43.754Z,57.20
2019-05-12T06:25:16.249Z,57.20
2019-05-12T06:27:44.314Z,57.10
2019-05-12T06:30:14.834Z,57.10
2019-05-12T06:32:50.202Z,56.90
2019-05-12T06:35:15.123Z,56.80
2019-05-12T06:37:44.365Z,56.70
2019-05-12T06:40:14.047Z,56.50
2019-05-12T06:42:43.542Z,56.30
2019-05-12T06:45:14.119Z,56.20
2019-05-12T06:47:47.499Z,56.00
2019-05-12T06:50:14.658Z,56.00
2019-05-12T06:52:46.904Z,55.90
2019-05-12T06:55:14.690Z,55.40
2019-05-12T06:57:45.858Z,57.00
2019-05-12T07:00:14.591Z,57.30
2019-05-12T07:02:49.988Z,56.40
2019-05-12T07:05:14.631Z,54.90
2019-05-12T07:07:46.021Z,53.10
2019-05-12T07:10:35.193Z,51.70
2019-05-12T07:12:57.647Z,50.50
2019-05-12T07:15:14.541Z,49.00
2019-05-12T07:17:49.992Z,47.70
2019-05-12T07:20:18.655Z,46.60
2019-05-12T07:22:48.524Z,45.30
2019-05-12T07:25:17.282Z,44.50
2019-05-12T07:27:55.161Z,43.80
2019-05-12T07:30:19.163Z,43.90
2019-05-12T07:32:51.278Z,43.90
2019-05-12T07:35:17.902Z,44.70
2019-05-12T07:37:47.371Z,44.40
2019-05-12T07:40:19.045Z,44.10
2019-05-12T07:42:46.085Z,45.00
2019-05-12T07:45:20.655Z,44.30
2019-05-12T07:47:45.058Z,44.30
2019-05-12T07:50:16.315Z,44.60
2019-05-12T07:52:44.318Z,44.60
2019-05-12T07:55:14.785Z,45.00
2019-05-12T07:57:52.995Z,45.30
2019-05-12T08:00:21.119Z,45.10
2019-05-12T08:02:44.391Z,45.30
2019-05-12T08:05:19.399Z,45.20
2019-05-12T08:07:44.498Z,45.80
2019-05-12T08:10:18.440Z,45.70
2019-05-12T08:12:44.574Z,45.70
2019-05-12T08:15:14.059Z,46.20
2019-05-12T08:17:44.091Z,46.30
2019-05-12T08:20:13.608Z,45.80
2019-05-12T08:22:43.828Z,45.30
2019-05-12T08:25:13.420Z,44.90
2019-05-12T08:27:45.186Z,45.40
2019-05-12T08:30:13.970Z,45.40
2019-05-12T08:32:44.306Z,45.60
2019-05-12T08:35:13.929Z,45.60
2019-05-12T08:37:44.161Z,45.80
2019-05-12T08:40:15.377Z,45.60
2019-05-12T08:42:43.656Z,46.00
2019-05-12T08:45:17.025Z,45.90
2019-05-12T08:47:44.063Z,45.60
2019-05-12T08:50:13.671Z,45.50
2019-05-12T08:52:44.306Z,45.20
2019-05-12T08:55:16.636Z,44.90
2019-05-12T08:57:49.374Z,44.00
2019-05-12T09:00:13.682Z,43.80
2019-05-12T09:02:46.190Z,43.40
2019-05-12T09:05:14.249Z,43.10
2019-05-12T09:07:43.639Z,43.10
2019-05-12T09:10:23.515Z,43.30
2019-05-12T09:12:54.098Z,43.90
2019-05-12T09:15:23.956Z,43.30
2019-05-12T09:17:56.843Z,43.00
2019-05-12T09:20:24.276Z,42.90
2019-05-12T09:23:00.769Z,43.00
2019-05-12T09:25:23.865Z,42.90
2019-05-12T09:27:54.213Z,42.80
2019-05-12T09:30:30.068Z,43.00
2019-05-12T09:32:58.815Z,43.10
2019-05-12T09:35:28.692Z,43.00
2019-05-12T09:37:57.860Z,43.00
2019-05-12T09:40:26.350Z,43.00
2019-05-12T09:42:54.868Z,43.10
2019-05-12T09:45:24.236Z,42.40
2019-05-12T09:47:53.983Z,41.80
2019-05-12T09:50:23.323Z,41.30
2019-05-12T09:52:55.395Z,40.60
2019-05-12T09:55:24.816Z,40.60
2019-05-12T09:57:54.420Z,40.20
2019-05-12T10:00:23.948Z,40.30
2019-05-12T10:02:59.308Z,40.50
2019-05-12T10:05:22.674Z,40.10
2019-05-12T10:07:51.102Z,39.60
2019-05-12T10:10:19.846Z,39.60
2019-05-12T10:12:50.497Z,39.60
2019-05-12T10:15:23.620Z,39.70
2019-05-12T10:17:48.707Z,40.70
2019-05-12T10:20:17.382Z,40.10
2019-05-12T10:22:45.803Z,40.60
2019-05-12T10:25:14.688Z,40.90
2019-05-12T10:27:44.279Z,41.60
2019-05-12T10:30:17.077Z,42.10
2019-05-12T10:32:43.710Z,42.30
2019-05-12T10:35:20.834Z,42.60
2019-05-12T10:37:44.384Z,42.60
2019-05-12T10:40:13.922Z,42.50
2019-05-12T10:42:46.264Z,42.30
2019-05-12T10:45:18.570Z,42.30
2019-05-12T10:47:43.532Z,42.10
2019-05-12T10:50:14.345Z,41.90
2019-05-12T10:52:44.005Z,41.70
2019-05-12T10:55:14.177Z,41.80
2019-05-12T10:57:43.962Z,42.20
2019-05-12T11:00:19.732Z,42.30
2019-05-12T11:02:45.335Z,41.90
2019-05-12T11:05:21.329Z,41.40
2019-05-12T11:07:44.373Z,41.10
2019-05-12T11:10:19.481Z,40.80
2019-05-12T11:12:44.150Z,40.60
2019-05-12T11:15:13.718Z,40.50
2019-05-12T11:17:53.381Z,40.40
2019-05-12T11:20:25.091Z,40.40
2019-05-12T11:22:54.287Z,40.50
2019-05-12T11:25:24.715Z,40.60
2019-05-12T11:27:54.873Z,41.00
2019-05-12T11:30:23.958Z,41.20
2019-05-12T11:32:54.077Z,41.60
2019-05-12T11:35:23.712Z,41.90
2019-05-12T11:37:53.862Z,42.20
2019-05-12T11:40:23.851Z,42.40
2019-05-12T11:42:59.042Z,42.60
2019-05-12T11:45:24.193Z,42.80
2019-05-12T11:47:56.851Z,43.10
2019-05-12T11:50:23.088Z,43.30
2019-05-12T11:52:52.300Z,43.20
2019-05-12T11:55:21.415Z,42.80
2019-05-12T11:57:51.111Z,42.30
2019-05-12T12:00:21.366Z,42.20
2019-05-12T12:02:50.132Z,42.00
2019-05-12T12:05:18.586Z,42.10
2019-05-12T12:07:51.430Z,42.40
2019-05-12T12:10:17.262Z,42.20
2019-05-12T12:12:49.291Z,41.70
2019-05-12T12:15:20.297Z,41.80
2019-05-12T12:17:46.355Z,41.60
2019-05-12T12:20:22.557Z,41.50
2019-05-12T12:22:48.159Z,41.60
2019-05-12T12:25:23.365Z,41.50
2019-05-12T12:27:53.745Z,41.40
2019-05-12T12:30:23.675Z,41.50
2019-05-12T12:32:57.131Z,40.80
2019-05-12T12:35:23.382Z,40.40
2019-05-12T12:37:54.132Z,40.30
2019-05-12T12:40:22.395Z,39.90
2019-05-12T12:42:50.810Z,40.50
2019-05-12T12:45:23.584Z,40.50
2019-05-12T12:47:51.173Z,40.20
2019-05-12T12:50:20.153Z,39.70
2019-05-12T12:52:49.743Z,39.50
2019-05-12T12:55:18.192Z,38.90
2019-05-12T12:57:50.730Z,38.70
2019-05-12T13:00:28.926Z,39.00
2019-05-12T13:02:49.195Z,39.20
2019-05-12T13:05:17.502Z,39.00
2019-05-12T13:07:45.928Z,38.90
2019-05-12T13:10:14.505Z,39.10
2019-05-12T13:12:43.755Z,38.80
2019-05-12T13:15:14.460Z,39.60
2019-05-12T13:17:44.777Z,39.40
2019-05-12T13:20:13.946Z,39.60
2019-05-12T13:22:44.367Z,39.30
2019-05-12T13:25:14.186Z,38.40
2019-05-12T13:27:42.961Z,39.10
2019-05-12T13:30:20.145Z,38.80
2019-05-12T13:32:44.157Z,38.70
2019-05-12T13:35:16.617Z,38.60
2019-05-12T13:37:43.381Z,38.60
2019-05-12T13:40:13.611Z,38.00
2019-05-12T13:42:43.792Z,37.50
2019-05-12T13:45:16.222Z,37.60
2019-05-12T13:47:44.010Z,37.30
2019-05-12T13:50:21.242Z,37.50
2019-05-12T13:52:43.338Z,37.60
2019-05-12T13:55:13.485Z,37.40
2019-05-12T13:57:46.580Z,37.40
2019-05-12T14:00:14.129Z,37.80
2019-05-12T14:02:44.138Z,37.60
2019-05-12T14:05:15.014Z,37.80
2019-05-12T14:07:43.808Z,38.00
2019-05-12T14:10:13.987Z,38.00
2019-05-12T14:12:43.967Z,38.30
2019-05-12T14:15:14.389Z,38.30
2019-05-12T14:17:43.793Z,38.20
2019-05-12T14:20:15.932Z,37.70
2019-05-12T14:22:44.989Z,37.30
2019-05-12T14:25:15.197Z,37.00
2019-05-12T14:27:44.323Z,36.30
2019-05-12T14:30:14.467Z,36.10
2019-05-12T14:32:43.987Z,36.20
2019-05-12T14:35:13.216Z,36.30
2019-05-12T14:37:45.736Z,36.30
2019-05-12T14:40:13.352Z,36.70
2019-05-12T14:42:44.241Z,36.90
2019-05-12T14:45:13.795Z,37.00
2019-05-12T14:47:43.669Z,37.00
2019-05-12T14:50:14.083Z,36.90
2019-05-12T14:52:43.983Z,36.80
2019-05-12T14:55:13.894Z,36.50
2019-05-12T14:57:42.536Z,36.00
2019-05-12T15:00:17.620Z,35.80
2019-05-12T15:02:43.697Z,35.70
2019-05-12T15:05:13.947Z,34.90
2019-05-12T15:07:50.846Z,34.70
2019-05-12T15:10:14.554Z,35.50
2019-05-12T15:12:44.061Z,34.50
2019-05-12T15:15:15.662Z,35.40
2019-05-12T15:17:44.408Z,34.60
2019-05-12T15:20:13.831Z,34.80
2019-05-12T15:22:51.346Z,34.90
2019-05-12T15:25:14.466Z,34.70
2019-05-12T15:27:45.925Z,35.00
2019-05-12T15:30:22.733Z,35.00
2019-05-12T15:32:43.738Z,34.80
2019-05-12T15:35:13.758Z,34.70
2019-05-12T15:37:43.594Z,34.80
2019-05-12T15:40:14.468Z,34.20
2019-05-12T15:42:45.345Z,34.20
2019-05-12T15:45:16.611Z,33.60
2019-05-12T15:47:44.638Z,33.90
2019-05-12T15:50:14.707Z,34.20
2019-05-12T15:52:45.625Z,34.30
2019-05-12T15:55:17.909Z,34.00
2019-05-12T15:57:44.800Z,33.80
2019-05-12T16:00:16.967Z,33.60
2019-05-12T16:02:44.533Z,33.80
2019-05-12T16:05:14.531Z,33.60
2019-05-12T16:07:45.804Z,33.50
2019-05-12T16:10:14.669Z,33.90
2019-05-12T16:12:43.647Z,33.00
2019-05-12T16:15:17.403Z,32.70
2019-05-12T16:17:44.253Z,32.60
2019-05-12T16:20:14.352Z,32.40
2019-05-12T16:22:45.151Z,32.50
2019-05-12T16:25:15.232Z,32.60
2019-05-12T16:27:44.628Z,32.70
2019-05-12T16:30:14.138Z,32.70
2019-05-12T16:32:47.484Z,32.60
2019-05-12T16:35:14.571Z,32.50
2019-05-12T16:37:44.211Z,32.40
2019-05-12T16:40:13.933Z,32.10
2019-05-12T16:42:48.124Z,32.50
2019-05-12T16:45:14.196Z,32.50
2019-05-12T16:47:44.850Z,32.40
2019-05-12T16:50:19.697Z,32.20
2019-05-12T16:52:45.430Z,32.40
2019-05-12T16:55:14.501Z,32.70
2019-05-12T16:57:51.630Z,32.40
2019-05-12T17:00:14.081Z,32.50
2019-05-12T17:02:51.910Z,32.90
2019-05-12T17:05:20.124Z,33.10
2019-05-12T17:07:44.125Z,33.10
2019-05-12T17:10:16.566Z,33.30
2019-05-12T17:12:43.859Z,33.50
2019-05-12T17:15:15.169Z,33.60
2019-05-12T17:17:44.821Z,33.70
2019-05-12T17:20:14.037Z,33.70
2019-05-12T17:22:45.396Z,33.90
2019-05-12T17:25:15.403Z,34.30
2019-05-12T17:27:44.900Z,34.10
2019-05-12T17:30:14.783Z,34.20
2019-05-12T17:32:57.549Z,34.30
2019-05-12T17:35:14.899Z,34.50
2019-05-12T17:37:43.577Z,34.70
2019-05-12T17:40:15.613Z,34.90
2019-05-12T17:42:44.316Z,35.30
2019-05-12T17:45:18.656Z,35.40
2019-05-12T17:47:44.794Z,35.70
2019-05-12T17:50:14.041Z,35.70
2019-05-12T17:52:44.851Z,36.00
2019-05-12T17:55:14.626Z,36.10
2019-05-12T17:57:44.030Z,36.10
2019-05-12T18:00:14.815Z,36.30
2019-05-12T18:02:44.076Z,36.50
2019-05-12T18:05:15.423Z,36.70
2019-05-12T18:07:44.640Z,37.00
2019-05-12T18:10:13.737Z,37.10
2019-05-12T18:12:45.288Z,37.50
2019-05-12T18:15:14.997Z,37.50
2019-05-12T18:17:47.372Z,37.70
2019-05-12T18:20:17.736Z,37.80
2019-05-12T18:22:47.129Z,37.80
2019-05-12T18:25:15.840Z,38.10
2019-05-12T18:27:50.270Z,38.20
2019-05-12T18:30:18.880Z,38.40
2019-05-12T18:32:45.617Z,38.60
2019-05-12T18:35:14.198Z,38.80
2019-05-12T18:37:42.716Z,38.80
2019-05-12T18:40:11.681Z,39.00
2019-05-12T18:42:40.134Z,39.20
2019-05-12T18:45:12.548Z,39.40
2019-05-12T18:47:40.499Z,39.60
2019-05-12T18:50:09.558Z,40.00
2019-05-12T18:52:42.970Z,40.00
2019-05-12T18:55:08.294Z,40.20
2019-05-12T18:57:39.330Z,40.30
2019-05-12T19:00:20.819Z,40.50
2019-05-12T19:02:51.162Z,40.90
2019-05-12T19:05:30.031Z,40.70
2019-05-12T19:07:49.547Z,41.00
2019-05-12T19:10:18.107Z,41.20
2019-05-12T19:12:46.641Z,41.40
2019-05-12T19:15:20.126Z,41.60
2019-05-12T19:17:45.989Z,41.80
2019-05-12T19:20:15.244Z,42.10
2019-05-12T19:22:49.414Z,42.00
2019-05-12T19:25:14.977Z,42.00
2019-05-12T19:27:45.656Z,42.10
2019-05-12T19:30:18.896Z,42.40
2019-05-12T19:32:44.993Z,42.50
2019-05-12T19:35:15.922Z,42.60
2019-05-12T19:37:45.349Z,42.60
2019-05-12T19:40:17.403Z,42.90
2019-05-12T19:42:44.967Z,43.10
2019-05-12T19:45:19.505Z,43.20
2019-05-12T19:47:44.421Z,43.20
2019-05-12T19:50:18.161Z,43.40
2019-05-12T19:52:43.636Z,43.50
2019-05-12T19:55:14.058Z,43.60
2019-05-12T19:57:44.146Z,43.50
2019-05-12T20:00:13.945Z,43.60
2019-05-12T20:02:42.655Z,43.80
2019-05-12T20:05:16.749Z,44.00
2019-05-12T20:07:41.501Z,44.10
2019-05-12T20:10:12.847Z,44.40
2019-05-12T20:12:40.475Z,44.50
2019-05-12T20:15:09.252Z,44.60
2019-05-12T20:17:37.944Z,44.70
2019-05-12T20:20:09.391Z,45.50
2019-05-12T20:22:38.758Z,44.80
2019-05-12T20:25:07.563Z,45.00
2019-05-12T20:27:35.996Z,45.20
2019-05-12T20:30:17.150Z,45.40
2019-05-12T20:32:40.146Z,45.50
2019-05-12T20:35:08.955Z,45.70
2019-05-12T20:37:37.371Z,45.70
2019-05-12T20:40:07.870Z,45.80
2019-05-12T20:42:42.463Z,45.90
2019-05-12T20:45:08.511Z,46.00
2019-05-12T20:47:39.111Z,46.20
2019-05-12T20:50:08.317Z,46.30
2019-05-12T20:52:39.328Z,46.30
2019-05-12T20:55:07.349Z,46.30
2019-05-12T20:57:40.051Z,46.50
2019-05-12T21:00:08.667Z,46.60
2019-05-12T21:02:37.265Z,46.90
2019-05-12T21:05:14.430Z,46.80
2019-05-12T21:07:37.565Z,46.90
2019-05-12T21:10:07.447Z,46.90
2019-05-12T21:12:40.072Z,46.90
2019-05-12T21:15:15.936Z,47.20
2019-05-12T21:17:43.081Z,47.30
2019-05-12T21:20:11.740Z,47.40
2019-05-12T21:22:39.021Z,47.50
2019-05-12T21:25:10.622Z,47.60
2019-05-12T21:27:38.039Z,48.30
2019-05-12T21:30:11.941Z,47.80
2019-05-12T21:32:40.321Z,47.80
2019-05-12T21:35:19.266Z,48.00
2019-05-12T21:37:45.572Z,48.10
2019-05-12T21:40:09.253Z,48.20
2019-05-12T21:42:37.694Z,48.20
2019-05-12T21:45:06.447Z,48.30
2019-05-12T21:47:42.869Z,48.70
2019-05-12T21:50:08.298Z,49.40
2019-05-12T21:52:39.152Z,49.40
2019-05-12T21:55:13.485Z,49.50
2019-05-12T21:57:37.230Z,50.50
2019-05-12T22:00:19.986Z,49.60
2019-05-12T22:02:46.486Z,49.70
2019-05-12T22:05:23.724Z,49.70
2019-05-12T22:07:45.430Z,49.70
2019-05-12T22:10:15.544Z,49.80
2019-05-12T22:12:44.172Z,50.00
2019-05-12T22:15:24.509Z,50.00
2019-05-12T22:17:59.948Z,50.30
2019-05-12T22:20:33.044Z,50.30
2019-05-12T22:23:09.568Z,50.30
2019-05-12T22:25:34.486Z,50.40
2019-05-12T22:28:08.225Z,50.30
2019-05-12T22:30:34.842Z,50.40
2019-05-12T22:33:08.300Z,50.60
2019-05-12T22:35:34.068Z,50.60
2019-05-12T22:38:09.225Z,50.60
2019-05-12T22:40:32.858Z,50.60
2019-05-12T22:43:03.794Z,50.60
2019-05-12T22:45:36.189Z,50.70
2019-05-12T22:48:04.020Z,50.80
2019-05-12T22:50:33.124Z,50.90
2019-05-12T22:53:04.133Z,50.90
2019-05-12T22:55:33.245Z,50.80
2019-05-12T22:58:02.457Z,51.00
2019-05-12T23:00:31.018Z,51.10
2019-05-12T23:03:00.707Z,51.10
2019-05-12T23:05:29.651Z,51.20
2019-05-12T23:08:00.300Z,51.30
2019-05-12T23:10:28.217Z,51.30
2019-05-12T23:13:01.587Z,51.30
2019-05-12T23:15:26.818Z,51.20
2019-05-12T23:17:55.238Z,51.10
2019-05-12T23:20:25.383Z,51.10
2019-05-12T23:22:54.484Z,51.10
2019-05-12T23:25:24.476Z,51.20
2019-05-12T23:27:54.745Z,51.30
2019-05-12T23:30:24.270Z,51.50
2019-05-12T23:32:53.125Z,51.60
2019-05-12T23:35:21.815Z,51.60
2019-05-12T23:37:50.324Z,51.60
2019-05-12T23:40:18.732Z,51.70
2019-05-12T23:42:47.162Z,51.80
2019-05-12T23:45:15.606Z,51.80
2019-05-12T23:47:44.212Z,51.90
2019-05-12T23:50:14.187Z,52.10
2019-05-12T23:52:44.083Z,52.00
2019-05-12T23:55:13.746Z,52.00
2019-05-12T23:57:44.377Z,51.90
